Time;durP1;ratioP1;P1;durP2;ratioP2;P2;SDS_P1;SDS_P2;PMS_P1;PMS_P2;Temp;Humidity;BMP_temperature;BMP_pressure;BME280_temperature;BME280_humidity;BME280_pressure;Samples;Min_cycle;Max_cycle;Signal;HPM_P1;HPM_P2
2022/11/13 00:00:50;;;;;;;18.92;15.77;;;11.40;99.90;;;;;;5094523;28;20039;-81
2022/11/13 00:03:16;;;;;;;21.00;15.68;;;10.90;99.90;;;;;;5094896;28;20063;-81
2022/11/13 00:05:42;;;;;;;20.98;15.25;;;10.80;99.90;;;;;;5094876;28;20022;-81
2022/11/13 00:08:08;;;;;;;22.00;16.20;;;10.80;99.90;;;;;;5094802;28;20032;-81
2022/11/13 00:10:33;;;;;;;19.85;16.92;;;10.80;99.90;;;;;;5094807;28;20024;-81
2022/11/13 00:12:59;;;;;;;19.67;16.55;;;10.80;99.90;;;;;;5094832;28;20036;-81
2022/11/13 00:15:25;;;;;;;19.65;16.40;;;10.70;99.90;;;;;;5094345;28;20024;-81
2022/11/13 00:17:50;;;;;;;19.48;16.30;;;10.70;99.90;;;;;;5094459;28;20136;-81
2022/11/13 00:20:17;;;;;;;22.10;17.08;;;10.70;99.90;;;;;;5094600;28;20028;-81
2022/11/13 00:22:43;;;;;;;26.35;18.17;;;10.60;99.90;;;;;;5094590;28;20039;-81
2022/11/13 00:25:08;;;;;;;25.00;17.83;;;10.70;99.90;;;;;;5094469;28;20464;-81
2022/11/13 00:27:34;;;;;;;23.13;18.88;;;10.80;99.90;;;;;;5093653;28;20024;-81
2022/11/13 00:30:00;;;;;;;23.77;17.52;;;11.00;99.90;;;;;;5094062;28;20062;-81
2022/11/13 00:32:26;;;;;;;24.02;18.67;;;10.50;99.90;;;;;;5094208;28;20034;-81
2022/11/13 00:34:51;;;;;;;22.08;18.33;;;10.60;99.90;;;;;;5094082;28;20557;-81
2022/11/13 00:37:17;;;;;;;21.02;17.20;;;10.60;99.90;;;;;;5094301;28;20036;-81
2022/11/13 00:39:43;;;;;;;19.85;17.00;;;10.60;99.90;;;;;;5094016;28;20020;-81
2022/11/13 00:42:09;;;;;;;21.23;17.17;;;10.60;99.90;;;;;;5093866;28;20040;-81
2022/11/13 00:44:34;;;;;;;20.52;16.73;;;10.80;99.90;;;;;;5094219;28;20028;-81
2022/11/13 00:47:00;;;;;;;21.45;16.50;;;10.60;99.90;;;;;;5093987;28;20028;-81
2022/11/13 00:49:25;;;;;;;20.58;16.42;;;10.50;99.90;;;;;;5094081;28;20024;-81
2022/11/13 00:51:51;;;;;;;19.50;15.30;;;10.40;99.90;;;;;;5094065;28;20117;-81
2022/11/13 00:54:17;;;;;;;21.50;16.48;;;10.30;99.90;;;;;;5093916;28;20050;-81
2022/11/13 00:56:43;;;;;;;16.85;15.05;;;10.30;99.90;;;;;;5093558;28;20024;-80
2022/11/13 00:59:08;;;;;;;22.92;16.65;;;10.20;99.90;;;;;;5093864;28;20016;-81
2022/11/13 01:01:34;;;;;;;20.27;16.58;;;10.20;99.90;;;;;;5093791;28;20043;-80
2022/11/13 01:03:59;;;;;;;21.13;16.77;;;10.60;99.90;;;;;;5075890;28;20023;-81
2022/11/13 01:06:27;;;;;;;23.67;16.80;;;9.90;99.90;;;;;;5093749;28;20412;-81
2022/11/13 01:08:57;;;;;;;20.63;16.90;;;9.80;99.90;;;;;;5093596;28;20024;-81
2022/11/13 01:11:25;;;;;;;21.15;16.27;;;9.80;99.90;;;;;;5093152;28;20109;-81
2022/11/13 01:13:51;;;;;;;20.17;16.48;;;9.80;99.90;;;;;;5075376;28;20506;-81
2022/11/13 01:16:21;;;;;;;20.80;15.90;;;10.20;99.90;;;;;;5093576;28;20081;-81
2022/11/13 01:18:47;;;;;;;19.50;16.70;;;9.80;99.90;;;;;;5093293;28;20098;-81
2022/11/13 01:21:19;;;;;;;19.00;15.90;;;9.80;99.90;;;;;;5093354;28;20131;-81
2022/11/13 01:23:45;;;;;;;18.75;15.55;;;9.80;99.90;;;;;;5093428;28;20069;-81
2022/11/13 01:26:15;;;;;;;17.90;15.18;;;9.90;99.90;;;;;;5093099;28;20028;-80
2022/11/13 01:28:42;;;;;;;16.48;14.63;;;9.80;99.90;;;;;;5093347;28;20082;-81
2022/11/13 01:31:11;;;;;;;21.63;16.48;;;10.10;99.90;;;;;;5093225;28;20553;-80
2022/11/13 01:33:37;;;;;;;19.83;16.65;;;10.10;99.90;;;;;;5093187;28;20032;-81
2022/11/13 01:36:09;;;;;;;23.27;16.80;;;10.10;99.90;;;;;;5093079;28;20044;-81
2022/11/13 01:38:35;;;;;;;22.70;17.77;;;10.30;99.90;;;;;;5093038;28;20028;-80
2022/11/13 01:41:00;;;;;;;19.98;16.33;;;10.60;99.90;;;;;;5092798;28;20546;-81
2022/11/13 01:43:32;;;;;;;23.00;17.08;;;10.60;99.90;;;;;;5093144;28;20111;-81
2022/11/13 01:45:57;;;;;;;24.95;17.25;;;10.50;99.90;;;;;;5074813;28;20377;-81
2022/11/13 01:48:37;;;;;;;28.90;19.27;;;10.90;99.90;;;;;;5092917;28;20024;-80
2022/11/13 01:51:11;;;;;;;39.78;19.95;;;10.50;99.90;;;;;;5092961;28;20020;-81
2022/11/13 01:53:37;;;;;;;81.00;24.45;;;11.00;99.90;;;;;;5092931;28;20474;-80
2022/11/13 01:56:03;;;;;;;72.28;21.05;;;10.60;99.90;;;;;;5074420;28;20388;-80
2022/11/13 01:58:28;;;;;;;27.10;17.50;;;10.50;99.90;;;;;;5092855;28;20016;-81
2022/11/13 02:00:54;;;;;;;26.55;18.00;;;10.70;99.90;;;;;;5092917;28;20035;-81
2022/11/13 02:03:20;;;;;;;31.75;19.10;;;10.40;99.90;;;;;;5092861;28;20028;-81
2022/11/13 02:05:45;;;;;;;128.10;23.67;;;10.40;99.90;;;;;;5092721;28;20485;-81
2022/11/13 02:08:11;;;;;;;52.78;20.20;;;10.60;99.90;;;;;;5092886;28;20024;-81
2022/11/13 02:10:36;;;;;;;61.78;21.52;;;10.30;99.90;;;;;;5092370;28;20056;-81
2022/11/13 02:13:02;;;;;;;63.85;22.05;;;10.10;99.90;;;;;;5092640;28;20020;-81
2022/11/13 02:15:31;;;;;;;65.82;21.95;;;10.10;99.90;;;;;;5092849;28;20028;-81
2022/11/13 02:17:59;;;;;;;134.45;27.55;;;10.10;99.90;;;;;;5092447;28;20028;-81
2022/11/13 02:20:34;;;;;;;118.22;31.67;;;10.20;99.90;;;;;;5092518;28;20504;-80
2022/11/13 02:23:50;;;;;;;101.40;23.98;;;10.20;99.90;;;;;;5092545;28;20135;-81
2022/11/13 02:26:21;;;;;;;132.90;23.63;;;10.30;99.90;;;;;;5010480;28;20145;-81
2022/11/13 02:28:47;;;;;;;87.90;23.52;;;10.40;99.90;;;;;;5010564;28;20041;-81
2022/11/13 02:31:13;;;;;;;82.43;24.05;;;10.10;99.90;;;;;;4994142;28;20034;-81
2022/11/13 02:33:39;;;;;;;126.53;22.38;;;10.10;99.90;;;;;;5010340;28;20360;-80
2022/11/13 02:36:06;;;;;;;86.38;22.35;;;10.40;99.90;;;;;;5010314;28;20049;-81
2022/11/13 02:38:34;;;;;;;77.22;21.67;;;10.00;99.90;;;;;;5010079;28;20065;-81
2022/11/13 02:41:00;;;;;;;70.90;20.42;;;10.00;99.90;;;;;;5010369;28;20038;-81
2022/11/13 02:43:26;;;;;;;89.05;20.23;;;10.00;99.90;;;;;;5010434;28;20109;-81
2022/11/13 02:45:52;;;;;;;93.03;20.35;;;10.00;99.90;;;;;;5010302;28;20089;-80
2022/11/13 02:48:17;;;;;;;63.30;18.27;;;10.20;99.90;;;;;;5010399;28;20053;-80
2022/11/13 02:50:43;;;;;;;55.45;17.45;;;9.80;99.90;;;;;;5011407;28;20076;-81
2022/11/13 02:53:09;;;;;;;33.88;16.23;;;9.70;99.90;;;;;;5013847;28;20117;-81
2022/11/13 02:55:35;;;;;;;38.70;14.93;;;9.60;99.90;;;;;;5014140;28;20105;-81
2022/11/13 02:58:00;;;;;;;37.05;15.52;;;9.80;99.90;;;;;;5014125;28;20036;-80
2022/11/13 03:00:26;;;;;;;39.50;15.13;;;9.40;99.90;;;;;;5014070;28;20113;-80
2022/11/13 03:02:52;;;;;;;43.63;15.38;;;9.10;99.90;;;;;;5071268;28;20747;-81
2022/11/13 03:05:18;;;;;;;48.15;15.80;;;9.00;99.90;;;;;;5075757;28;20025;-81
2022/11/13 03:07:43;;;;;;;56.75;16.65;;;9.40;99.90;;;;;;5075402;28;20029;-81
2022/11/13 03:10:10;;;;;;;43.80;14.85;;;9.20;99.90;;;;;;5057737;28;20039;-81
2022/11/13 03:12:36;;;;;;;43.78;15.40;;;9.00;99.90;;;;;;5075651;28;20036;-80
2022/11/13 03:15:01;;;;;;;46.40;16.63;;;9.10;99.90;;;;;;5075588;28;20025;-81
2022/11/13 03:17:30;;;;;;;61.28;14.93;;;9.00;99.90;;;;;;5083832;28;20354;-81
2022/11/13 03:19:55;;;;;;;33.55;14.45;;;9.40;99.90;;;;;;5095776;28;20035;-81
2022/11/13 03:22:21;;;;;;;63.67;16.15;;;9.10;99.90;;;;;;5095471;28;20039;-80
2022/11/13 03:24:46;;;;;;;45.40;15.35;;;9.00;99.90;;;;;;5095837;28;20046;-80
2022/11/13 03:27:12;;;;;;;37.67;14.70;;;9.00;99.90;;;;;;5095789;28;20023;-80
2022/11/13 03:29:37;;;;;;;47.47;16.00;;;8.90;99.90;;;;;;5095600;28;20020;-80
2022/11/13 03:32:03;;;;;;;26.90;14.27;;;8.90;99.90;;;;;;5095545;28;20432;-80
2022/11/13 03:34:29;;;;;;;48.88;15.32;;;9.00;99.90;;;;;;5095468;28;20027;-80
2022/11/13 03:36:54;;;;;;;34.65;13.93;;;8.90;99.90;;;;;;5095113;28;20031;-80
2022/11/13 03:39:21;;;;;;;39.30;13.95;;;8.80;99.90;;;;;;5095388;28;20020;-80
2022/11/13 03:41:47;;;;;;;44.33;14.63;;;8.70;99.90;;;;;;5095286;28;20081;-81
2022/11/13 03:44:12;;;;;;;61.35;14.95;;;8.60;99.90;;;;;;5095325;28;20476;-80
2022/11/13 03:46:38;;;;;;;28.88;14.10;;;8.50;99.90;;;;;;5095226;28;20024;-80
2022/11/13 03:49:03;;;;;;;23.33;14.65;;;8.40;99.90;;;;;;5095124;28;20054;-80
2022/11/13 03:51:29;;;;;;;24.13;14.38;;;8.40;99.90;;;;;;5095017;28;20098;-80
2022/11/13 03:53:54;;;;;;;25.98;14.45;;;8.50;99.90;;;;;;5095045;28;20024;-80
2022/11/13 03:56:20;;;;;;;19.33;13.70;;;8.40;99.90;;;;;;5095006;28;20024;-80
2022/11/13 03:58:46;;;;;;;18.13;13.30;;;8.50;99.90;;;;;;5076830;28;20035;-81
2022/11/13 04:01:11;;;;;;;15.05;12.52;;;8.60;99.90;;;;;;5094835;28;20044;-81
2022/11/13 04:03:37;;;;;;;15.05;12.32;;;8.40;99.90;;;;;;5093893;28;20021;-81
2022/11/13 04:06:03;;;;;;;15.95;12.82;;;8.30;99.90;;;;;;5094580;28;20456;-81
2022/11/13 04:08:28;;;;;;;15.50;13.02;;;8.30;99.90;;;;;;5076727;28;20020;-81
2022/11/13 04:10:54;;;;;;;15.65;12.90;;;8.60;99.90;;;;;;5094780;28;20035;-81
2022/11/13 04:13:19;;;;;;;16.85;13.35;;;8.30;99.90;;;;;;5095003;28;20028;-81
2022/11/13 04:15:46;;;;;;;15.68;12.88;;;8.40;99.90;;;;;;5094700;28;20024;-80
2022/11/13 04:18:11;;;;;;;16.33;13.98;;;8.30;99.90;;;;;;5094733;28;20586;-80
2022/11/13 04:20:37;;;;;;;17.73;14.05;;;8.40;99.90;;;;;;5094304;28;20028;-80
2022/11/13 04:23:06;;;;;;;18.70;13.90;;;8.60;99.90;;;;;;5094459;28;20109;-81
2022/11/13 04:25:32;;;;;;;17.70;13.95;;;8.50;99.90;;;;;;5094520;28;20439;-81
2022/11/13 04:27:58;;;;;;;16.35;13.18;;;8.90;99.90;;;;;;5094432;28;20020;-81
2022/11/13 04:30:23;;;;;;;18.23;14.45;;;8.40;99.90;;;;;;5094392;28;20028;-80
2022/11/13 04:32:49;;;;;;;16.08;13.57;;;8.30;99.90;;;;;;5094322;28;20472;-80
2022/11/13 04:35:14;;;;;;;17.58;13.80;;;8.20;99.90;;;;;;5093770;28;20131;-81
2022/11/13 04:37:40;;;;;;;15.90;13.60;;;8.40;99.90;;;;;;5094293;28;20028;-80
2022/11/13 04:40:06;;;;;;;19.38;14.02;;;8.30;99.90;;;;;;5094388;28;20433;-80
2022/11/13 04:42:50;;;;;;;18.35;13.82;;;8.20;99.90;;;;;;5094208;28;20435;-81
2022/11/13 04:45:18;;;;;;;17.65;12.93;;;8.20;99.90;;;;;;5094142;28;20023;-80
2022/11/13 04:47:44;;;;;;;16.80;13.98;;;8.30;99.90;;;;;;5094021;28;20028;-80
2022/11/13 04:50:10;;;;;;;18.88;14.48;;;8.20;99.90;;;;;;5093845;28;20388;-81
2022/11/13 04:52:36;;;;;;;19.35;14.20;;;8.50;99.90;;;;;;5094059;28;20085;-80
2022/11/13 04:55:02;;;;;;;21.13;15.48;;;8.20;99.90;;;;;;5075769;28;20442;-81
2022/11/13 04:57:28;;;;;;;21.02;15.48;;;8.20;99.90;;;;;;5093870;28;20024;-80
2022/11/13 04:59:54;;;;;;;18.25;14.10;;;8.10;99.90;;;;;;5093932;28;20085;-80
2022/11/13 05:02:20;;;;;;;18.48;14.75;;;8.20;99.90;;;;;;5093705;28;20046;-81
2022/11/13 05:04:45;;;;;;;19.35;14.13;;;8.20;99.90;;;;;;5093476;28;20024;-81
2022/11/13 05:07:11;;;;;;;17.23;14.27;;;8.20;99.90;;;;;;5093751;28;20035;-80
2022/11/13 05:09:37;;;;;;;18.90;14.38;;;8.30;99.90;;;;;;5093711;28;20062;-80
2022/11/13 05:12:06;;;;;;;17.05;13.90;;;8.30;99.90;;;;;;5093707;28;20116;-80
2022/11/13 05:14:39;;;;;;;16.38;13.27;;;8.20;99.90;;;;;;5093157;28;20025;-80
2022/11/13 05:17:05;;;;;;;16.63;13.82;;;8.20;99.90;;;;;;5093394;28;20028;-80
2022/11/13 05:19:32;;;;;;;18.48;15.02;;;8.20;99.90;;;;;;5093163;28;20103;-81
2022/11/13 05:21:58;;;;;;;18.63;13.50;;;8.30;99.90;;;;;;5093466;28;20043;-80
2022/11/13 05:24:24;;;;;;;20.33;15.30;;;8.40;99.90;;;;;;5093359;28;20020;-81
2022/11/13 05:26:50;;;;;;;17.65;13.93;;;8.40;99.90;;;;;;5093466;28;20488;-80
2022/11/13 05:29:15;;;;;;;21.40;15.25;;;8.50;99.90;;;;;;5093275;28;20512;-81
2022/11/13 05:31:41;;;;;;;18.55;14.95;;;8.50;99.90;;;;;;5093208;28;20028;-80
2022/11/13 05:34:07;;;;;;;22.88;15.52;;;8.60;99.90;;;;;;5092864;28;20097;-80
2022/11/13 05:36:32;;;;;;;22.88;15.63;;;8.60;99.90;;;;;;5093117;28;20574;-80
2022/11/13 05:38:58;;;;;;;22.45;15.40;;;8.60;99.90;;;;;;5093254;28;20024;-80
2022/11/13 05:41:24;;;;;;;24.80;15.90;;;8.90;99.90;;;;;;5093065;28;20048;-80
2022/11/13 05:43:50;;;;;;;22.35;15.68;;;8.40;99.90;;;;;;5093076;28;20485;-80
2022/11/13 05:46:21;;;;;;;32.20;15.40;;;8.50;99.90;;;;;;5093034;28;20059;-80
2022/11/13 05:48:52;;;;;;;23.73;15.13;;;8.40;99.90;;;;;;5092544;28;20032;-80
2022/11/13 05:51:25;;;;;;;26.30;15.48;;;8.80;99.90;;;;;;5092924;28;20024;-81
2022/11/13 05:53:51;;;;;;;19.45;14.55;;;8.50;99.90;;;;;;5092917;28;20032;-80
2022/11/13 05:56:23;;;;;;;47.38;15.23;;;8.60;99.90;;;;;;5092917;28;20020;-80
2022/11/13 05:58:50;;;;;;;53.85;15.27;;;8.60;99.90;;;;;;5092908;28;20126;-81
2022/11/13 06:01:18;;;;;;;53.55;15.55;;;8.40;99.90;;;;;;5092362;28;20027;-80
2022/11/13 06:03:45;;;;;;;24.52;15.68;;;8.40;99.90;;;;;;5092814;28;20051;-80
2022/11/13 06:06:16;;;;;;;40.03;14.73;;;8.40;99.90;;;;;;5092886;28;20103;-81
2022/11/13 06:08:42;;;;;;;53.95;15.45;;;8.40;99.90;;;;;;5092865;28;20035;-81
2022/11/13 06:11:11;;;;;;;44.00;15.40;;;8.50;99.90;;;;;;5092620;28;20024;-81
2022/11/13 06:13:37;;;;;;;40.42;15.43;;;8.60;99.90;;;;;;5092704;28;20484;-80
2022/11/13 06:16:12;;;;;;;53.20;16.25;;;8.60;99.90;;;;;;5092360;28;20032;-81
2022/11/13 06:18:39;;;;;;;63.15;15.95;;;8.60;99.90;;;;;;5092431;28;20025;-81
2022/11/13 06:21:07;;;;;;;52.80;16.85;;;8.60;99.90;;;;;;5092537;28;20059;-80
2022/11/13 06:23:35;;;;;;;57.95;16.42;;;8.30;99.90;;;;;;5092640;28;20028;-80
2022/11/13 06:26:01;;;;;;;39.33;16.77;;;8.30;99.90;;;;;;5094279;28;20492;-80
2022/11/13 06:28:27;;;;;;;92.95;17.80;;;8.30;99.90;;;;;;5096737;28;20101;-80
2022/11/13 06:30:52;;;;;;;81.00;16.73;;;8.60;99.90;;;;;;5096426;28;20059;-80
2022/11/13 06:33:18;;;;;;;65.03;16.90;;;8.30;99.90;;;;;;5096611;28;20024;-80
2022/11/13 06:35:44;;;;;;;92.35;17.75;;;8.30;99.90;;;;;;5096391;28;20048;-80
2022/11/13 06:38:09;;;;;;;142.48;19.40;;;8.50;99.90;;;;;;5096640;28;20028;-80
2022/11/13 06:40:37;;;;;;;88.95;17.75;;;8.40;99.90;;;;;;5096642;28;20114;-80
2022/11/13 06:43:03;;;;;;;54.47;17.33;;;8.30;99.90;;;;;;5096537;28;20036;-80
2022/11/13 06:45:28;;;;;;;57.13;17.70;;;8.40;99.90;;;;;;5096097;28;20152;-80
2022/11/13 06:47:54;;;;;;;47.08;18.23;;;8.50;99.90;;;;;;5096444;28;20054;-80
2022/11/13 06:50:20;;;;;;;108.43;21.45;;;8.50;99.90;;;;;;5096422;28;20099;-80
2022/11/13 06:52:45;;;;;;;66.47;17.65;;;8.40;99.90;;;;;;5096403;28;20555;-80
2022/11/13 06:55:11;;;;;;;61.58;17.20;;;8.60;99.90;;;;;;5096420;28;20024;-80
2022/11/13 06:57:37;;;;;;;62.92;18.15;;;8.70;99.90;;;;;;5096162;28;20028;-80
2022/11/13 07:00:03;;;;;;;136.13;22.33;;;8.50;99.90;;;;;;5095831;28;20020;-80
2022/11/13 07:02:29;;;;;;;72.57;20.98;;;8.50;99.90;;;;;;5096015;28;20036;-80
2022/11/13 07:04:54;;;;;;;93.82;20.52;;;8.50;99.90;;;;;;5096082;28;20491;-80
2022/11/13 07:07:20;;;;;;;96.47;19.70;;;8.60;99.90;;;;;;5096030;28;20059;-80
2022/11/13 07:09:46;;;;;;;54.25;19.38;;;8.50;99.90;;;;;;5096018;28;20481;-80
2022/11/13 07:12:11;;;;;;;92.70;20.10;;;8.70;99.90;;;;;;5096099;28;20024;-80
2022/11/13 07:14:37;;;;;;;86.07;18.90;;;8.70;99.90;;;;;;5095824;28;20016;-80
2022/11/13 07:17:02;;;;;;;63.92;19.60;;;8.80;99.90;;;;;;5095621;28;20492;-80
2022/11/13 07:19:28;;;;;;;83.93;20.15;;;8.90;99.90;;;;;;5095787;28;20034;-80
2022/11/13 07:21:53;;;;;;;47.67;18.33;;;8.90;99.90;;;;;;5095722;28;20032;-80
2022/11/13 07:24:19;;;;;;;41.38;17.88;;;8.90;99.90;;;;;;5095802;28;20028;-80
2022/11/13 07:26:45;;;;;;;30.77;16.67;;;8.90;99.90;;;;;;5095741;28;20036;-80
2022/11/13 07:29:11;;;;;;;30.25;17.50;;;8.60;99.90;;;;;;5095370;28;20111;-80
2022/11/13 07:31:36;;;;;;;52.40;17.33;;;8.70;99.90;;;;;;5096101;28;20484;-80
2022/11/13 07:34:02;;;;;;;38.35;18.02;;;8.70;99.90;;;;;;5095969;28;20042;-81
2022/11/13 07:36:28;;;;;;;40.75;18.42;;;8.70;99.90;;;;;;5094988;28;20048;-80
2022/11/13 07:38:53;;;;;;;86.80;20.85;;;8.70;99.90;;;;;;5095386;28;20013;-80
2022/11/13 07:41:19;;;;;;;39.08;19.58;;;8.70;99.90;;;;;;5095363;28;20036;-80
2022/11/13 07:43:44;;;;;;;46.03;20.75;;;8.80;99.90;;;;;;5095012;28;20032;-80
2022/11/13 07:46:10;;;;;;;43.70;24.90;;;9.00;99.90;;;;;;5077093;28;20575;-80
2022/11/13 07:48:36;;;;;;;64.22;21.30;;;9.10;99.90;;;;;;5095164;28;20028;-80
2022/11/13 07:51:02;;;;;;;32.22;18.20;;;9.30;99.90;;;;;;5095090;28;20034;-80
2022/11/13 07:53:28;;;;;;;43.30;18.88;;;9.30;99.90;;;;;;5095248;28;20035;-80
2022/11/13 07:55:54;;;;;;;31.52;19.00;;;9.30;99.90;;;;;;5095051;28;20027;-80
2022/11/13 07:58:20;;;;;;;28.60;18.60;;;9.60;99.90;;;;;;5094614;28;20024;-80
2022/11/13 08:00:45;;;;;;;34.25;17.90;;;9.20;99.90;;;;;;5095125;28;20384;-80
2022/11/13 08:03:13;;;;;;;77.53;19.20;;;9.20;99.90;;;;;;5094960;28;20028;-80
2022/11/13 08:05:39;;;;;;;30.13;18.80;;;9.20;99.90;;;;;;5094996;28;20024;-80
2022/11/13 08:08:05;;;;;;;41.97;19.20;;;9.60;99.90;;;;;;5094885;28;20032;-81
2022/11/13 08:10:31;;;;;;;27.33;18.20;;;9.40;99.90;;;;;;5094739;28;20020;-80
2022/11/13 08:13:02;;;;;;;27.52;20.10;;;9.50;99.90;;;;;;5094423;28;20020;-80
2022/11/13 08:15:29;;;;;;;54.33;20.98;;;9.50;99.90;;;;;;5076573;28;20028;-80
2022/11/13 08:17:56;;;;;;;29.63;20.50;;;9.40;99.90;;;;;;5094557;28;20023;-80
2022/11/13 08:20:23;;;;;;;29.80;20.73;;;9.50;99.90;;;;;;5094719;28;20028;-80
2022/11/13 08:22:49;;;;;;;31.38;19.58;;;9.60;99.90;;;;;;5094509;28;20476;-80
2022/11/13 08:25:15;;;;;;;31.60;20.48;;;9.70;99.90;;;;;;5094526;28;20016;-80
2022/11/13 08:27:41;;;;;;;29.38;20.83;;;9.70;99.90;;;;;;5094202;28;20031;-80
2022/11/13 08:30:07;;;;;;;32.33;20.45;;;9.50;99.90;;;;;;5094715;28;20476;-80
2022/11/13 08:32:33;;;;;;;32.15;21.17;;;9.50;99.90;;;;;;5094700;28;20038;-81
2022/11/13 08:34:58;;;;;;;29.60;21.08;;;9.50;99.90;;;;;;5094673;28;20032;-80
2022/11/13 08:37:24;;;;;;;30.40;20.33;;;9.60;99.90;;;;;;5095042;28;20054;-80
2022/11/13 08:39:50;;;;;;;26.35;19.27;;;9.60;99.90;;;;;;5094537;28;20039;-81
2022/11/13 08:42:15;;;;;;;30.05;21.10;;;9.60;99.90;;;;;;5094368;28;20032;-80
2022/11/13 08:44:41;;;;;;;27.92;20.20;;;9.60;99.90;;;;;;5094553;28;20055;-80
2022/11/13 08:47:07;;;;;;;31.75;21.42;;;9.50;99.90;;;;;;5094602;28;20032;-80
2022/11/13 08:49:32;;;;;;;30.27;21.80;;;9.40;99.90;;;;;;5093563;28;20103;-80
2022/11/13 08:51:58;;;;;;;35.60;23.35;;;9.30;99.90;;;;;;5094272;28;20020;-81
2022/11/13 08:54:24;;;;;;;30.23;20.95;;;9.40;99.90;;;;;;5076075;28;20020;-80
2022/11/13 08:56:49;;;;;;;27.08;19.42;;;9.60;99.90;;;;;;5094203;28;20098;-81
2022/11/13 08:59:15;;;;;;;30.85;20.02;;;9.60;99.90;;;;;;5076542;28;20074;-81
2022/11/13 09:01:41;;;;;;;26.48;19.50;;;9.90;99.90;;;;;;5093898;28;20085;-80
2022/11/13 09:04:06;;;;;;;26.67;19.90;;;9.70;99.90;;;;;;5094067;28;20042;-81
2022/11/13 09:06:32;;;;;;;28.17;19.45;;;9.60;99.90;;;;;;5094061;28;20384;-81
2022/11/13 09:08:58;;;;;;;26.35;20.58;;;9.70;99.90;;;;;;5093964;28;20031;-81
2022/11/13 09:11:26;;;;;;;24.63;18.92;;;9.80;99.90;;;;;;5093582;28;20015;-80
2022/11/13 09:13:52;;;;;;;25.52;19.10;;;9.80;99.90;;;;;;5094046;28;20495;-81
2022/11/13 09:16:18;;;;;;;27.35;19.17;;;9.90;99.90;;;;;;5093959;28;20016;-81
2022/11/13 09:18:44;;;;;;;23.95;17.90;;;10.00;99.90;;;;;;5093586;28;20384;-81
2022/11/13 09:21:10;;;;;;;25.08;18.25;;;10.00;99.90;;;;;;5093653;28;20127;-80
2022/11/13 09:23:35;;;;;;;25.10;17.90;;;10.00;99.90;;;;;;5093989;28;20028;-81
2022/11/13 09:26:02;;;;;;;24.95;18.35;;;10.00;99.90;;;;;;5093641;28;20055;-80
2022/11/13 09:28:28;;;;;;;27.40;18.67;;;10.00;99.90;;;;;;5093430;28;20032;-80
2022/11/13 09:30:53;;;;;;;23.25;18.45;;;10.10;99.90;;;;;;5093548;28;20060;-80
2022/11/13 09:33:19;;;;;;;23.02;18.00;;;10.20;99.90;;;;;;5093517;28;20031;-81
2022/11/13 09:35:45;;;;;;;20.48;17.10;;;10.30;99.90;;;;;;5093021;28;20404;-80
2022/11/13 09:38:13;;;;;;;21.88;17.08;;;10.40;99.90;;;;;;5093804;28;20479;-81
2022/11/13 09:40:41;;;;;;;21.38;17.33;;;10.40;99.90;;;;;;5093111;28;20027;-81
2022/11/13 09:43:29;;;;;;;22.50;17.77;;;10.40;99.90;;;;;;5093189;28;20057;-81
2022/11/13 09:46:01;;;;;;;21.08;16.98;;;10.60;99.90;;;;;;5093363;28;20095;-81
2022/11/13 09:48:36;;;;;;;21.75;16.85;;;10.70;99.90;;;;;;5093453;28;20024;-81
2022/11/13 09:51:26;;;;;;;22.95;17.90;;;10.80;99.90;;;;;;5093162;28;20075;-81
2022/11/13 09:53:52;;;;;;;22.13;16.98;;;10.70;99.90;;;;;;5093155;28;20502;-81
2022/11/13 09:56:29;;;;;;;21.77;16.90;;;10.80;99.90;;;;;;5093168;28;20021;-81
2022/11/13 09:59:15;;;;;;;24.65;18.45;;;10.80;99.90;;;;;;5092999;28;20513;-80
2022/11/13 10:01:57;;;;;;;23.67;18.50;;;10.70;99.90;;;;;;5092972;28;20051;-81
2022/11/13 10:04:38;;;;;;;23.30;19.05;;;10.80;99.90;;;;;;5093382;28;20012;-81
2022/11/13 10:07:22;;;;;;;25.52;19.02;;;10.80;99.90;;;;;;5093053;28;20031;-81
2022/11/13 10:10:15;;;;;;;25.27;20.23;;;10.80;99.90;;;;;;5092437;28;20024;-81
2022/11/13 10:12:43;;;;;;;24.35;18.77;;;10.80;99.90;;;;;;5092864;28;20500;-81
2022/11/13 10:15:10;;;;;;;23.05;19.10;;;10.90;99.90;;;;;;5092154;28;20552;-81
2022/11/13 10:17:51;;;;;;;24.35;18.88;;;11.00;99.90;;;;;;5092721;28;20488;-81
2022/11/13 10:20:30;;;;;;;23.33;19.00;;;11.20;99.90;;;;;;5092791;28;20110;-81
2022/11/13 10:23:24;;;;;;;24.88;18.60;;;11.20;99.90;;;;;;5092529;28;20119;-81
2022/11/13 10:25:51;;;;;;;22.90;18.83;;;11.40;99.90;;;;;;5092820;28;20115;-81
2022/11/13 10:28:22;;;;;;;25.92;20.15;;;11.60;99.90;;;;;;5093227;28;20020;-81
2022/11/13 10:30:49;;;;;;;26.33;19.75;;;11.60;99.90;;;;;;5092690;28;20400;-81
2022/11/13 10:33:20;;;;;;;24.67;19.50;;;11.80;99.90;;;;;;5092409;28;20511;-81
2022/11/13 10:36:21;;;;;;;24.10;19.48;;;11.90;99.90;;;;;;5092306;28;20050;-81
2022/11/13 10:39:00;;;;;;;24.38;19.23;;;11.70;99.90;;;;;;5092100;28;20111;-81
2022/11/13 10:41:25;;;;;;;26.65;20.58;;;11.80;99.90;;;;;;5092353;28;20507;-81
2022/11/13 10:43:55;;;;;;;23.17;19.20;;;11.90;99.90;;;;;;5092412;28;20025;-81
2022/11/13 10:46:24;;;;;;;23.70;19.05;;;12.10;99.90;;;;;;5074240;28;20505;-80
2022/11/13 10:48:50;;;;;;;25.63;20.90;;;12.40;99.90;;;;;;5092335;28;20031;-81
2022/11/13 10:51:31;;;;;;;26.23;22.25;;;12.20;99.90;;;;;;5092065;28;20028;-80
2022/11/13 10:53:58;;;;;;;25.00;20.77;;;12.30;99.90;;;;;;5092351;28;20036;-80
2022/11/13 10:56:28;;;;;;;24.17;19.27;;;12.60;99.90;;;;;;5092388;28;20095;-81
2022/11/13 10:59:12;;;;;;;25.10;20.13;;;12.50;99.90;;;;;;5092189;28;20020;-81
2022/11/13 11:01:39;;;;;;;24.70;20.38;;;13.00;99.90;;;;;;5092261;28;20024;-80
2022/11/13 11:04:07;;;;;;;29.45;22.67;;;12.90;99.90;;;;;;5092300;28;20047;-81
2022/11/13 11:06:37;;;;;;;29.85;22.38;;;13.00;99.90;;;;;;5091763;28;20028;-81
2022/11/13 11:09:28;;;;;;;27.25;21.80;;;13.20;99.90;;;;;;5091900;28;20028;-80
2022/11/13 11:12:15;;;;;;;27.73;21.60;;;13.30;99.90;;;;;;5093056;28;20089;-81
2022/11/13 11:14:55;;;;;;;29.98;23.80;;;13.20;99.90;;;;;;5095793;28;20447;-80
2022/11/13 11:17:38;;;;;;;29.95;23.67;;;13.30;99.90;;;;;;5095297;28;20031;-81
2022/11/13 11:20:19;;;;;;;27.40;21.77;;;13.50;99.90;;;;;;5095957;28;20046;-81
2022/11/13 11:22:46;;;;;;;26.00;20.65;;;13.40;99.90;;;;;;5095651;28;20032;-81
2022/11/13 11:25:30;;;;;;;26.70;20.80;;;13.50;99.90;;;;;;5095810;28;20024;-81
2022/11/13 11:28:04;;;;;;;25.35;20.52;;;13.70;99.90;;;;;;5095691;28;20028;-81
2022/11/13 11:30:41;;;;;;;26.08;20.90;;;13.90;99.90;;;;;;5095702;28;20043;-81
2022/11/13 11:33:18;;;;;;;25.63;20.63;;;13.80;99.90;;;;;;5095379;28;20489;-81
2022/11/13 11:36:03;;;;;;;26.70;20.67;;;13.70;99.90;;;;;;5094949;28;20032;-81
2022/11/13 11:38:36;;;;;;;22.90;19.48;;;13.70;99.90;;;;;;5095413;28;20036;-80
2022/11/13 11:41:11;;;;;;;22.92;19.42;;;13.90;99.90;;;;;;5095372;28;20027;-81
2022/11/13 11:43:46;;;;;;;22.80;19.23;;;14.10;99.90;;;;;;5095301;28;20042;-81
2022/11/13 11:46:13;;;;;;;26.45;19.80;;;14.30;99.90;;;;;;5095456;28;20020;-81
2022/11/13 11:48:39;;;;;;;22.73;19.20;;;14.30;99.90;;;;;;5095234;28;20027;-81
2022/11/13 11:51:42;;;;;;;23.27;20.17;;;14.10;99.90;;;;;;5094880;28;20024;-81
2022/11/13 11:54:37;;;;;;;23.10;19.40;;;14.00;99.90;;;;;;5095193;28;20025;-81
2022/11/13 11:57:35;;;;;;;24.73;19.73;;;14.10;99.90;;;;;;5095038;28;20034;-81
2022/11/13 12:00:08;;;;;;;24.00;19.60;;;13.90;99.90;;;;;;5095009;28;20103;-81
2022/11/13 12:02:34;;;;;;;25.35;20.48;;;13.90;99.90;;;;;;5094907;28;20058;-81
2022/11/13 12:05:23;;;;;;;24.25;19.77;;;13.70;99.90;;;;;;5094621;28;20488;-81
2022/11/13 12:08:13;;;;;;;25.00;19.88;;;13.50;99.90;;;;;;5094838;28;20032;-81
2022/11/13 12:11:15;;;;;;;23.05;19.35;;;13.60;99.90;;;;;;5094968;28;20044;-81
2022/11/13 12:13:53;;;;;;;25.00;20.10;;;13.50;99.90;;;;;;5094841;28;20032;-81
2022/11/13 12:16:47;;;;;;;23.77;20.42;;;13.50;99.90;;;;;;5094763;28;20020;-81
2022/11/13 12:19:30;;;;;;;25.33;19.95;;;13.50;99.90;;;;;;5092355;28;20028;-81
2022/11/13 12:22:25;;;;;;;22.92;19.25;;;13.40;99.90;;;;;;5094572;28;20039;-81
2022/11/13 12:25:09;;;;;;;23.05;20.50;;;13.60;99.90;;;;;;5093836;28;20016;-81
2022/11/13 12:27:40;;;;;;;23.85;19.95;;;13.70;99.90;;;;;;5094517;28;20107;-81
2022/11/13 12:30:18;;;;;;;24.67;20.50;;;14.00;99.90;;;;;;5094587;28;20020;-81
2022/11/13 12:33:10;;;;;;;24.27;20.67;;;13.40;99.90;;;;;;5075793;28;20035;-81
2022/11/13 12:35:37;;;;;;;22.67;19.83;;;13.50;99.90;;;;;;5094106;28;20119;-81
2022/11/13 12:38:29;;;;;;;22.35;19.45;;;14.00;99.90;;;;;;5094349;28;20036;-81
2022/11/13 12:41:24;;;;;;;23.83;19.63;;;14.40;99.90;;;;;;5094230;28;20028;-80
2022/11/13 12:43:58;;;;;;;21.58;19.27;;;15.10;99.90;;;;;;5094255;28;20189;-81